Time;durP1;ratioP1;P1;durP2;ratioP2;P2;SDS_P1;SDS_P2;PMS_P1;PMS_P2;Temp;Humidity;BMP_temperature;BMP_pressure;BME280_temperature;BME280_humidity;BME280_pressure;Samples;Min_cycle;Max_cycle;Signal;HPM_P1;HPM_P2
2023/09/25 00:00:34;;;;;;;3.85;2.00;;;;;;;12.90;74.32;99126.25;5094303;28;20028;-46
2023/09/25 00:03:00;;;;;;;11.73;2.60;;;;;;;12.68;76.15;99123.81;5094292;28;20020;-46
2023/09/25 00:05:27;;;;;;;2.80;1.80;;;;;;;12.74;76.95;99124.84;5093086;28;20024;-46
2023/09/25 00:07:54;;;;;;;2.50;1.85;;;;;;;12.64;77.08;99121.81;5093287;28;20050;-46
2023/09/25 00:10:20;;;;;;;4.78;2.03;;;;;;;12.48;77.57;99123.81;5093923;28;20068;-46
2023/09/25 00:12:46;;;;;;;6.70;2.60;;;;;;;12.49;78.40;99125.41;5092502;28;20051;-46
2023/09/25 00:15:12;;;;;;;5.47;1.90;;;;;;;12.36;78.04;99130.69;5092569;28;20513;-46
2023/09/25 00:17:38;;;;;;;8.55;2.53;;;;;;;12.11;78.78;99126.00;5093830;28;20486;-46
2023/09/25 00:20:04;;;;;;;4.68;2.28;;;;;;;11.88;79.35;99128.13;5093695;28;20020;-46
2023/09/25 00:22:33;;;;;;;4.78;1.73;;;;;;;11.81;80.22;99130.72;5093707;28;20024;-46
2023/09/25 00:24:59;;;;;;;3.42;2.25;;;;;;;11.79;80.89;99135.38;5092330;28;20485;-46
2023/09/25 00:27:25;;;;;;;7.95;2.75;;;;;;;11.91;nan;99136.47;5093413;28;20032;-46
2023/09/25 00:29:51;;;;;;;10.50;2.17;;;;;;;12.00;81.74;99139.72;5093542;28;20035;-45
2023/09/25 00:32:17;;;;;;;8.52;2.60;;;;;;;12.03;81.24;99136.69;5093498;28;20031;-46
2023/09/25 00:34:42;;;;;;;8.55;2.42;;;;;;;12.01;81.69;99143.97;5092412;28;20063;-46
2023/09/25 00:37:08;;;;;;;3.60;1.83;;;;;;;12.29;82.48;99135.94;5093392;28;20103;-46
2023/09/25 00:39:34;;;;;;;6.57;2.05;;;;;;;12.67;81.91;99142.44;5093378;28;20149;-45
2023/09/25 00:41:59;;;;;;;4.55;2.33;;;;;;;12.74;81.04;99143.28;5092019;28;20024;-46
2023/09/25 00:44:25;;;;;;;9.68;2.47;;;;;;;12.85;80.83;99134.75;5092155;28;20027;-46
2023/09/25 00:46:51;;;;;;;9.45;2.20;;;;;;;12.98;80.02;99140.00;5093207;28;20020;-46
2023/09/25 00:49:17;;;;;;;7.70;2.25;;;;;;;13.10;79.66;99144.63;5093100;28;20049;-46
2023/09/25 00:51:48;;;;;;;18.02;3.33;;;;;;;13.22;79.19;99135.13;5093036;28;20111;-46
2023/09/25 00:54:17;;;;;;;11.60;2.42;;;;;;;13.19;78.73;99146.84;5093399;28;20244;-46
2023/09/25 00:56:43;;;;;;;10.30;2.50;;;;;;;13.24;78.85;99148.91;5092114;28;20081;-46
2023/09/25 00:59:09;;;;;;;3.92;1.85;;;;;;;13.35;77.84;99148.28;5091751;28;20424;-46
2023/09/25 01:01:36;;;;;;;8.30;2.25;;;;;;;13.33;77.85;99149.50;5092981;28;20104;-46
2023/09/25 01:04:02;;;;;;;9.80;2.60;;;;;;;13.17;76.92;99151.53;5092904;28;20050;-46
2023/09/25 01:06:28;;;;;;;8.57;2.30;;;;;;;12.75;76.50;99147.50;5092587;28;20036;-46
2023/09/25 01:08:53;;;;;;;4.72;1.88;;;;;;;12.25;77.30;99150.50;5092966;28;20024;-46
2023/09/25 01:11:19;;;;;;;4.97;2.00;;;;;;;11.86;78.90;99153.81;5092799;28;20508;-46
2023/09/25 01:13:44;;;;;;;6.55;2.00;;;;;;;11.70;79.72;99153.13;5091402;28;20066;-46
2023/09/25 01:16:10;;;;;;;5.63;2.05;;;;;;;11.68;80.80;99149.91;5092652;28;20024;-46
2023/09/25 01:18:36;;;;;;;6.65;2.30;;;;;;;11.92;82.49;99153.88;5092315;28;20107;-46
2023/09/25 01:21:03;;;;;;;6.47;2.00;;;;;;;12.17;82.08;99151.53;5090942;28;20116;-45
2023/09/25 01:23:29;;;;;;;91.47;79.43;;;;;;;12.36;82.09;99149.91;5092457;28;20020;-46
2023/09/25 01:25:55;;;;;;;12.00;4.38;;;;;;;12.64;81.39;99150.78;5092487;28;20018;-46
2023/09/25 01:28:20;;;;;;;7.93;2.80;;;;;;;12.61;80.62;99154.59;5092433;28;20031;-46
2023/09/25 01:30:46;;;;;;;9.65;2.47;;;;;;;12.53;80.46;99166.13;5091075;28;20028;-46
2023/09/25 01:33:12;;;;;;;8.00;2.42;;;;;;;12.52;80.58;99164.53;5091120;28;20493;-45
2023/09/25 01:35:37;;;;;;;11.52;7.38;;;;;;;12.50;81.32;99158.66;5092306;28;20374;-46
2023/09/25 01:38:04;;;;;;;13.32;7.32;;;;;;;12.37;81.04;99156.81;5090987;28;20051;-46
2023/09/25 01:40:31;;;;;;;16.77;9.70;;;;;;;12.43;81.88;99162.28;5092531;28;20027;-46
2023/09/25 01:42:57;;;;;;;7.05;3.47;;;;;;;12.57;82.17;99164.72;5092238;28;20028;-46
2023/09/25 01:45:23;;;;;;;7.50;2.83;;;;;;;12.94;81.62;99162.50;5090859;28;20028;-46
2023/09/25 01:47:51;;;;;;;11.38;3.65;;;;;;;13.08;79.68;99160.69;5090733;28;20032;-46
2023/09/25 01:50:22;;;;;;;10.52;3.35;;;;;;;12.99;78.68;99159.25;5092361;28;20032;-46
2023/09/25 01:52:57;;;;;;;11.63;4.38;;;;;;;12.85;78.30;99153.19;5092064;28;20028;-46
2023/09/25 01:55:26;;;;;;;;;;;;;;;12.66;77.96;99156.66;5074600;28;20028;-46
2023/09/25 01:57:52;;;;;;;11.85;3.47;;;;;;;12.46;78.49;99154.81;5092003;28;19908;-46
2023/09/25 02:00:18;;;;;;;9.32;3.15;;;;;;;12.31;78.56;99154.16;5092000;28;20535;-46
2023/09/25 02:02:45;;;;;;;9.82;2.50;;;;;;;12.20;79.36;99160.81;5091924;28;20490;-46
2023/09/25 02:05:11;;;;;;;9.25;2.75;;;;;;;12.13;79.16;99165.25;5091956;28;20024;-46
2023/09/25 02:07:37;;;;;;;18.25;4.10;;;;;;;12.06;79.47;99167.88;5091496;28;20034;-46
2023/09/25 02:10:03;;;;;;;8.00;2.70;;;;;;;12.08;80.24;99165.06;5090591;28;20032;-46
2023/09/25 02:12:28;;;;;;;8.48;2.85;;;;;;;12.28;80.28;99167.72;5091886;28;20508;-46
2023/09/25 02:15:00;;;;;;;5.25;2.60;;;;;;;12.24;79.45;99163.88;5092065;28;20024;-46
2023/09/25 02:17:27;;;;;;;8.85;3.50;;;;;;;12.05;79.18;99163.59;5091807;28;20031;-46
2023/09/25 02:19:54;;;;;;;11.32;3.75;;;;;;;11.87;79.36;99158.88;5091813;28;20119;-46
2023/09/25 02:22:20;;;;;;;7.00;3.15;;;;;;;12.05;81.44;99160.16;5091742;28;20025;-46
2023/09/25 02:24:45;;;;;;;20.33;3.90;;;;;;;12.47;81.72;99159.03;5091681;28;20024;-46
2023/09/25 02:27:11;;;;;;;6.03;3.10;;;;;;;12.74;80.71;99162.50;5090406;28;20020;-46
2023/09/25 02:29:37;;;;;;;5.72;2.50;;;;;;;12.83;79.34;99163.13;5090304;28;20035;-46
2023/09/25 02:32:03;;;;;;;8.93;2.67;;;;;;;12.90;78.70;99152.59;5095391;28;20051;-46
2023/09/25 02:34:28;;;;;;;10.23;2.97;;;;;;;12.98;78.57;99155.03;5094510;28;20020;-46
2023/09/25 02:36:54;;;;;;;11.65;2.25;;;;;;;13.05;78.03;99147.09;5095694;28;20031;-46
2023/09/25 02:39:20;;;;;;;3.60;1.92;;;;;;;13.06;77.23;99151.34;5095682;28;20099;-45
2023/09/25 02:41:46;;;;;;;8.50;2.42;;;;;;;12.89;76.34;99148.31;5095615;28;20016;-46
2023/09/25 02:44:11;;;;;;;9.25;2.38;;;;;;;12.83;76.79;99149.13;5094310;28;20508;-46
2023/09/25 02:46:37;;;;;;;12.10;2.30;;;;;;;12.74;76.63;99154.63;5077331;28;20034;-46
2023/09/25 02:49:03;;;;;;;7.05;2.38;;;;;;;12.72;77.24;99155.84;5095486;28;20020;-46
2023/09/25 02:51:28;;;;;;;5.78;2.08;;;;;;;12.83;77.61;99152.56;5094170;28;20024;-46
2023/09/25 02:53:54;;;;;;;6.20;2.00;;;;;;;12.77;76.92;99154.19;5095397;28;20103;-46
2023/09/25 02:56:20;;;;;;;4.55;1.90;;;;;;;12.37;76.05;99158.63;5094334;28;20115;-46
2023/09/25 02:58:46;;;;;;;5.50;2.28;;;;;;;11.89;77.04;99156.91;5094031;28;20040;-46
2023/09/25 03:01:12;;;;;;;4.22;2.08;;;;;;;11.55;78.06;99157.72;5095232;28;20023;-46
2023/09/25 03:03:39;;;;;;;3.88;2.17;;;;;;;11.42;79.24;99162.91;5095247;28;20036;-46
2023/09/25 03:06:05;;;;;;;7.47;2.65;;;;;;;11.71;81.53;99162.66;5093695;28;20389;-47
2023/09/25 03:08:30;;;;;;;7.32;3.00;;;;;;;12.18;81.19;99174.19;5095156;28;20028;-46
2023/09/25 03:10:56;;;;;;;6.28;2.13;;;;;;;12.56;80.78;99164.94;5095081;28;20036;-46
2023/09/25 03:13:22;;;;;;;9.75;2.40;;;;;;;12.73;78.90;99155.63;5095114;28;20058;-46
2023/09/25 03:15:47;;;;;;;5.40;2.30;;;;;;;12.76;78.12;99155.22;5093673;28;20119;-46
2023/09/25 03:18:13;;;;;;;8.77;2.17;;;;;;;12.74;77.96;99153.81;5094997;28;20478;-46
2023/09/25 03:20:39;;;;;;;12.45;2.22;;;;;;;12.79;77.80;99151.38;5093906;28;20521;-46
2023/09/25 03:23:05;;;;;;;13.75;3.50;;;;;;;12.83;77.55;99147.31;5093565;28;20020;-46
2023/09/25 03:25:34;;;;;;;5.70;2.25;;;;;;;12.88;77.30;99144.09;5094805;28;20111;-46
2023/09/25 03:28:00;;;;;;;8.13;2.40;;;;;;;12.92;76.73;99140.84;5094687;28;20385;-46
2023/09/25 03:30:26;;;;;;;6.03;1.95;;;;;;;12.99;76.97;99138.19;5094783;28;20089;-46
2023/09/25 03:32:54;;;;;;;8.52;6.28;;;;;;;13.04;76.26;99142.81;5094949;28;20028;-46
2023/09/25 03:35:23;;;;;;;6.43;2.10;;;;;;;12.91;75.95;99139.19;5094554;28;20028;-46
2023/09/25 03:37:49;;;;;;;4.82;2.65;;;;;;;12.69;75.90;99148.31;5094535;28;20028;-46
2023/09/25 03:40:14;;;;;;;4.47;1.70;;;;;;;12.49;76.42;99143.84;5094545;28;20028;-46
2023/09/25 03:42:41;;;;;;;9.07;2.25;;;;;;;12.43;76.96;99152.56;5092493;28;20024;-46
2023/09/25 03:45:07;;;;;;;10.45;2.70;;;;;;;12.30;77.40;99147.28;5094403;28;20028;-46
2023/09/25 03:47:34;;;;;;;7.07;1.92;;;;;;;12.19;77.90;99146.88;5094265;28;20506;-46
2023/09/25 03:50:01;;;;;;;8.05;2.00;;;;;;;12.05;77.56;99149.66;5094622;28;20039;-46
2023/09/25 03:52:27;;;;;;;8.57;2.78;;;;;;;11.84;78.02;99153.19;5092974;28;20077;-46
2023/09/25 03:54:53;;;;;;;5.00;2.20;;;;;;;11.71;78.64;99153.94;5094226;28;20023;-46
2023/09/25 03:57:18;;;;;;;5.28;1.92;;;;;;;11.62;79.15;99155.13;5094162;28;20020;-45
2023/09/25 03:59:44;;;;;;;3.90;2.03;;;;;;;11.46;79.25;99156.25;5094150;28;20101;-46
2023/09/25 04:02:10;;;;;;;6.55;2.70;;;;;;;11.36;79.93;99167.94;5094350;28;20478;-45
2023/09/25 04:04:35;;;;;;;5.20;2.20;;;;;;;11.71;82.57;99162.66;5094082;28;20020;-46
2023/09/25 04:07:01;;;;;;;9.98;2.30;;;;;;;12.30;82.16;99163.88;5092426;28;20585;-46
2023/09/25 04:09:27;;;;;;;8.50;3.22;;;;;;;12.70;80.29;99160.50;5093931;28;20027;-46
2023/09/25 04:11:53;;;;;;;7.05;2.15;;;;;;;12.90;78.91;99168.41;5092652;28;20452;-46
2023/09/25 04:14:19;;;;;;;5.30;1.92;;;;;;;12.83;77.60;99163.13;5093881;28;20040;-46
2023/09/25 04:16:45;;;;;;;9.43;2.35;;;;;;;12.78;77.63;99153.19;5093740;28;20093;-46
2023/09/25 04:19:12;;;;;;;9.93;2.53;;;;;;;12.65;76.75;99153.19;5092454;28;20024;-46
2023/09/25 04:21:39;;;;;;;7.60;2.60;;;;;;;12.47;77.29;99155.59;5093938;28;20024;-46
2023/09/25 04:24:04;;;;;;;5.38;1.90;;;;;;;12.35;77.05;99155.38;5092417;28;20016;-46
2023/09/25 04:26:30;;;;;;;3.15;1.88;;;;;;;11.97;76.91;99153.25;5093848;28;20028;-46
2023/09/25 04:28:57;;;;;;;10.90;2.40;;;;;;;11.68;78.25;99157.78;5093533;28;20056;-46
2023/09/25 04:31:23;;;;;;;5.65;2.03;;;;;;;11.67;79.13;99158.81;5093477;28;20051;-48
2023/09/25 04:33:48;;;;;;;5.47;2.08;;;;;;;11.62;79.16;99155.94;5093534;28;20105;-48
2023/09/25 04:36:14;;;;;;;5.00;2.50;;;;;;;11.42;78.90;99155.03;5093403;28;20036;-48
2023/09/25 04:38:40;;;;;;;12.02;2.75;;;;;;;11.23;79.98;99161.78;5092108;28;20607;-47
2023/09/25 04:41:05;;;;;;;4.00;2.38;;;;;;;11.06;80.37;99164.69;5092019;28;20037;-48
2023/09/25 04:43:34;;;;;;;7.13;2.47;;;;;;;10.91;81.00;99164.81;5093195;28;20016;-47
2023/09/25 04:46:00;;;;;;;16.95;3.47;;;;;;;10.95;82.20;99167.88;5093236;28;20028;-48
2023/09/25 04:48:26;;;;;;;9.90;3.08;;;;;;;11.49;83.89;99176.88;5093031;28;20093;-48
2023/09/25 04:50:52;;;;;;;4.72;3.08;;;;;;;11.90;82.52;99178.75;5091836;28;20062;-48
2023/09/25 04:53:21;;;;;;;9.18;2.70;;;;;;;12.10;82.25;99176.19;5091515;28;20024;-46
2023/09/25 04:55:47;;;;;;;10.27;3.03;;;;;;;12.35;81.55;99176.44;5092452;28;20038;-46
2023/09/25 04:58:12;;;;;;;18.00;3.90;;;;;;;12.50;80.71;99171.81;5092991;28;20023;-46
2023/09/25 05:00:39;;;;;;;9.13;3.13;;;;;;;12.55;79.59;99171.19;5091602;28;20028;-46
2023/09/25 05:03:04;;;;;;;13.50;2.83;;;;;;;12.65;79.62;99176.09;5093186;28;20420;-46
2023/09/25 05:05:31;;;;;;;7.35;2.90;;;;;;;12.86;78.89;99183.78;5074749;28;20040;-46
2023/09/25 05:07:57;;;;;;;9.82;3.90;;;;;;;12.98;77.93;99184.00;5092527;28;20048;-46
2023/09/25 05:10:25;;;;;;;19.13;3.22;;;;;;;12.97;76.87;99182.38;5092718;28;20107;-46
2023/09/25 05:12:52;;;;;;;11.43;2.33;;;;;;;12.83;76.01;99189.44;5092801;28;20024;-46
2023/09/25 05:15:18;;;;;;;12.88;3.00;;;;;;;12.58;75.87;99195.31;5091404;28;20030;-46
2023/09/25 05:17:45;;;;;;;12.43;3.03;;;;;;;12.53;76.58;99195.09;5091374;28;20497;-45
2023/09/25 05:20:15;;;;;;;8.90;2.60;;;;;;;12.54;76.56;99191.47;5091307;28;20074;-46
2023/09/25 05:22:52;;;;;;;12.73;2.65;;;;;;;12.32;76.13;99197.91;5092645;28;20453;-46
2023/09/25 05:25:19;;;;;;;10.43;3.03;;;;;;;12.31;76.61;99202.34;5091272;28;20096;-46
2023/09/25 05:27:47;;;;;;;7.70;2.70;;;;;;;12.34;76.31;99196.69;5092417;28;20028;-46
2023/09/25 05:30:13;;;;;;;6.68;2.75;;;;;;;12.17;75.99;99196.25;5091148;28;20066;-46
2023/09/25 05:32:41;;;;;;;9.95;3.00;;;;;;;11.88;75.78;99201.78;5092381;28;20511;-46
2023/09/25 05:35:07;;;;;;;6.50;3.28;;;;;;;11.63;76.35;99204.06;5091025;28;20047;-46
2023/09/25 05:37:34;;;;;;;8.65;3.95;;;;;;;11.51;77.41;99215.13;5092350;28;20027;-46
2023/09/25 05:40:00;;;;;;;8.90;3.03;;;;;;;11.53;78.77;99207.88;5091106;28;20023;-46
2023/09/25 05:42:26;;;;;;;14.55;2.80;;;;;;;11.85;78.71;99204.78;5091227;28;20028;-46
2023/09/25 05:44:52;;;;;;;14.27;3.20;;;;;;;12.12;77.18;99213.63;5092276;28;20038;-46
2023/09/25 05:47:18;;;;;;;9.20;2.97;;;;;;;12.28;76.12;99210.66;5092207;28;20024;-46
2023/09/25 05:49:43;;;;;;;14.65;3.35;;;;;;;12.36;76.79;99209.66;5092025;28;20097;-46
2023/09/25 05:52:09;;;;;;;11.65;2.90;;;;;;;12.74;76.92;99207.28;5092064;28;20095;-46
2023/09/25 05:54:35;;;;;;;7.07;2.38;;;;;;;13.01;76.09;99209.13;5092019;28;20111;-46
2023/09/25 05:57:00;;;;;;;16.77;3.35;;;;;;;13.12;75.25;99205.84;5091023;28;20021;-46
2023/09/25 05:59:26;;;;;;;23.23;3.33;;;;;;;13.25;74.55;99212.97;5091932;28;20088;-46
2023/09/25 06:01:52;;;;;;;14.15;2.78;;;;;;;13.46;74.53;99219.84;5092227;28;20153;-46
2023/09/25 06:04:18;;;;;;;5.13;2.33;;;;;;;13.62;73.94;99226.50;5090598;28;20115;-46
2023/09/25 06:06:44;;;;;;;18.95;2.85;;;;;;;13.52;73.05;99226.94;5091534;28;20044;-46
2023/09/25 06:09:15;;;;;;;11.98;2.92;;;;;;;13.50;73.67;99219.25;5090587;28;20031;-46
2023/09/25 06:11:41;;;;;;;10.10;3.15;;;;;;;14.31;73.02;99217.94;5091858;28;20401;-46
2023/09/25 06:14:09;;;;;;;6.50;2.60;;;;;;;15.73;69.39;99213.97;5091849;28;20063;-46
2023/09/25 06:16:36;;;;;;;7.45;2.80;;;;;;;16.96;64.91;99207.47;5092043;28;20028;-46
2023/09/25 06:19:03;;;;;;;13.75;3.00;;;;;;;17.86;61.37;99202.78;5091915;28;20077;-46
2023/09/25 06:21:30;;;;;;;8.27;2.60;;;;;;;18.50;58.41;99210.63;5092079;28;20024;-46
2023/09/25 06:23:55;;;;;;;11.07;3.10;;;;;;;19.03;56.34;99200.59;5090593;28;20396;-47
2023/09/25 06:26:21;;;;;;;19.13;3.08;;;;;;;19.52;54.03;99205.31;5091705;28;20024;-46
2023/09/25 06:28:47;;;;;;;10.95;3.97;;;;;;;19.81;52.80;99208.63;5091937;28;20021;-46
2023/09/25 06:31:13;;;;;;;9.15;3.45;;;;;;;19.96;51.63;99218.69;5091635;28;20107;-46
2023/09/25 06:33:39;;;;;;;10.40;3.28;;;;;;;20.14;51.38;99220.19;5090461;28;20059;-46
2023/09/25 06:36:05;;;;;;;4.20;2.00;;;;;;;20.28;50.48;99223.28;5091650;28;20044;-46
2023/09/25 06:38:31;;;;;;;5.40;2.72;;;;;;;20.45;49.94;99226.66;5091882;28;20452;-46
2023/09/25 06:40:57;;;;;;;28.52;3.53;;;;;;;20.59;50.17;99228.97;5091614;28;20115;-44
2023/09/25 06:43:22;;;;;;;22.13;4.53;;;;;;;20.48;49.32;99233.34;5090325;28;20024;-44
2023/09/25 06:45:48;;;;;;;26.88;4.03;;;;;;;20.43;49.45;99236.78;5090233;28;20038;-44
2023/09/25 06:48:14;;;;;;;25.58;3.80;;;;;;;20.58;49.21;99237.97;5091759;28;20093;-44
2023/09/25 06:50:40;;;;;;;23.98;4.10;;;;;;;20.68;48.38;99243.44;5090354;28;20504;-44
2023/09/25 06:53:05;;;;;;;12.65;2.97;;;;;;;20.97;47.37;99243.13;5090219;28;20024;-44
2023/09/25 06:55:32;;;;;;;30.05;2.78;;;;;;;21.39;46.66;99242.38;5091791;28;20028;-44
2023/09/25 06:57:57;;;;;;;16.33;3.92;;;;;;;21.71;45.37;99240.47;5091516;28;20027;-44
2023/09/25 07:00:24;;;;;;;17.10;3.30;;;;;;;21.87;45.77;99254.69;5090189;28;20028;-44
2023/09/25 07:02:51;;;;;;;25.85;4.15;;;;;;;22.17;44.38;99239.03;5090236;28;20393;-44
2023/09/25 07:05:16;;;;;;;20.25;4.28;;;;;;;22.48;44.25;99248.78;5091401;28;20370;-44
2023/09/25 07:07:42;;;;;;;9.43;2.85;;;;;;;23.23;43.03;99244.81;5091095;28;20562;-44
2023/09/25 07:10:10;;;;;;;16.80;3.53;;;;;;;23.93;42.05;99242.25;5091373;28;20020;-44
2023/09/25 07:12:37;;;;;;;16.52;3.50;;;;;;;24.75;40.17;99240.97;5091612;28;20383;-44
2023/09/25 07:15:03;;;;;;;16.70;3.33;;;;;;;25.41;38.82;99239.63;5091284;28;20510;-44
2023/09/25 07:17:29;;;;;;;17.23;3.40;;;;;;;25.69;38.01;99236.06;5090836;28;20063;-44
2023/09/25 07:19:56;;;;;;;16.60;4.13;;;;;;;25.79;37.27;99231.66;5095004;28;20060;-44
2023/09/25 07:22:25;;;;;;;16.42;4.20;;;;;;;25.74;36.93;99229.84;5094835;28;20027;-44
2023/09/25 07:24:51;;;;;;;8.02;2.67;;;;;;;25.67;37.13;99230.19;5093678;28;20043;-44
2023/09/25 07:27:18;;;;;;;17.88;3.08;;;;;;;25.83;36.75;99230.78;5094786;28;20397;-44
2023/09/25 07:29:48;;;;;;;14.02;3.58;;;;;;;26.06;36.72;99228.41;5093353;28;20028;-44
2023/09/25 07:32:15;;;;;;;12.57;3.50;;;;;;;26.16;36.48;99225.59;5093429;28;20027;-45
2023/09/25 07:34:45;;;;;;;14.95;3.22;;;;;;;26.19;36.09;99224.19;5094927;28;20016;-46
2023/09/25 07:37:12;;;;;;;19.05;3.67;;;;;;;26.36;36.25;99221.81;5094614;28;20371;-46
2023/09/25 07:39:40;;;;;;;24.70;4.20;;;;;;;26.59;35.79;99232.81;5094543;28;20016;-46
2023/09/25 07:42:09;;;;;;;12.63;3.25;;;;;;;26.77;35.31;99229.28;5094491;28;20023;-46
2023/09/25 07:44:35;;;;;;;20.85;4.22;;;;;;;27.17;34.48;99235.06;5093187;28;20020;-46
2023/09/25 07:47:06;;;;;;;14.93;3.63;;;;;;;27.25;34.86;99231.72;5094375;28;20043;-45
2023/09/25 07:49:55;;;;;;;13.75;3.70;;;;;;;27.06;34.83;99239.84;5094337;28;20028;-46
2023/09/25 07:52:20;;;;;;;7.15;2.95;;;;;;;26.94;34.88;99246.78;5094006;28;20052;-46
2023/09/25 07:54:48;;;;;;;9.23;3.33;;;;;;;27.02;34.97;99249.59;5094316;28;20031;-46
2023/09/25 07:57:23;;;;;;;8.82;3.20;;;;;;;27.33;34.76;99243.72;5092926;28;20455;-46
2023/09/25 07:59:49;;;;;;;9.27;2.80;;;;;;;27.64;34.49;99248.50;5094308;28;20034;-46
2023/09/25 08:02:20;;;;;;;8.38;3.75;;;;;;;27.85;33.38;99254.31;5094411;28;20028;-45
2023/09/25 08:04:49;;;;;;;20.83;3.63;;;;;;;28.17;33.14;99252.59;5094143;28;20031;-46
2023/09/25 08:07:15;;;;;;;13.35;3.13;;;;;;;28.55;32.99;99250.41;5092492;28;20136;-46
2023/09/25 08:09:41;;;;;;;23.40;5.50;;;;;;;29.00;32.23;99245.00;5092744;28;20032;-46
2023/09/25 08:12:06;;;;;;;9.40;2.88;;;;;;;29.47;31.64;99252.75;5093961;28;20042;-45
2023/09/25 08:14:32;;;;;;;15.93;4.05;;;;;;;30.18;30.92;99243.72;5093976;28;20111;-46
2023/09/25 08:16:58;;;;;;;18.50;5.47;;;;;;;30.54;30.29;99245.34;5093869;28;20024;-46
2023/09/25 08:19:24;;;;;;;7.43;2.75;;;;;;;30.83;29.53;99237.34;5093754;28;20036;-46
2023/09/25 08:21:53;;;;;;;18.73;4.55;;;;;;;31.08;29.47;99234.13;5093811;28;20028;-46
2023/09/25 08:24:20;;;;;;;15.35;4.18;;;;;;;31.15;29.48;99235.25;5092414;28;20024;-46
2023/09/25 08:26:48;;;;;;;6.32;2.40;;;;;;;31.09;28.77;99239.25;5093631;28;20095;-46
2023/09/25 08:29:15;;;;;;;24.65;4.05;;;;;;;31.12;28.37;99244.00;5091966;28;20024;-46
2023/09/25 08:31:43;;;;;;;6.05;2.35;;;;;;;31.32;28.03;99241.72;5092231;28;20459;-46
2023/09/25 08:34:09;;;;;;;5.93;1.92;;;;;;;31.44;27.51;99249.97;5094001;28;20032;-46
2023/09/25 08:36:35;;;;;;;23.35;4.57;;;;;;;31.47;28.55;99248.53;5093441;28;20451;-46
2023/09/25 08:39:00;;;;;;;25.70;4.30;;;;;;;31.80;28.30;99246.78;5093443;28;20020;-46
2023/09/25 08:41:27;;;;;;;12.32;2.88;;;;;;;32.00;27.56;99242.53;5093340;28;20032;-46
2023/09/25 08:43:53;;;;;;;12.05;2.83;;;;;;;32.08;27.39;99256.41;5092021;28;20020;-46
2023/09/25 08:46:19;;;;;;;7.18;2.10;;;;;;;32.26;27.16;99257.84;5091970;28;20027;-46
2023/09/25 08:48:46;;;;;;;24.48;3.85;;;;;;;32.50;27.54;99259.09;5093178;28;20024;-46
2023/09/25 08:51:12;;;;;;;12.48;2.60;;;;;;;32.75;27.33;99260.03;5093122;28;20020;-46
2023/09/25 08:53:38;;;;;;;19.55;3.03;;;;;;;33.17;27.18;99260.72;5093119;28;20024;-46
2023/09/25 08:56:05;;;;;;;10.57;2.67;;;;;;;33.37;27.07;99258.28;5091732;28;20052;-46
2023/09/25 08:58:33;;;;;;;20.40;3.67;;;;;;;33.63;26.87;99257.97;5093015;28;20054;-46
2023/09/25 09:00:58;;;;;;;8.35;2.25;;;;;;;33.38;26.91;99255.22;5092984;28;20051;-46
2023/09/25 09:03:27;;;;;;;29.55;5.18;;;;;;;32.13;30.41;99256.97;5092875;28;20063;-46
2023/09/25 09:05:53;;;;;;;10.20;2.35;;;;;;;30.78;30.63;99252.97;5093178;28;20381;-46
2023/09/25 09:08:19;;;;;;;23.23;4.03;;;;;;;30.39;31.61;99250.13;5092490;28;20127;-46
2023/09/25 09:10:45;;;;;;;31.88;5.97;;;;;;;31.12;30.62;99251.34;5092789;28;20453;-46
2023/09/25 09:13:10;;;;;;;13.60;2.90;;;;;;;31.73;29.41;99257.34;5092773;28;20023;-46
2023/09/25 09:15:38;;;;;;;9.63;2.22;;;;;;;32.10;27.94;99256.84;5092698;28;20081;-46
2023/09/25 09:18:32;;;;;;;23.02;3.42;;;;;;;32.72;27.90;99258.78;5092613;28;20024;-46
2023/09/25 09:20:57;;;;;;;51.47;5.72;;;;;;;32.88;27.69;99258.13;5090638;28;20036;-46
2023/09/25 09:23:41;;;;;;;98.93;9.10;;;;;;;32.46;28.44;99253.53;5092588;28;20042;-46
2023/09/25 09:26:13;;;;;;;23.60;3.28;;;;;;;32.35;27.93;99255.06;5092736;28;20059;-46
2023/09/25 09:28:43;;;;;;;113.82;12.15;;;;;;;31.60;27.98;99244.81;5091238;28;20023;-46
2023/09/25 09:31:11;;;;;;;156.63;14.30;;;;;;;31.63;28.51;99244.97;5091115;28;20039;-46
2023/09/25 09:33:43;;;;;;;67.68;6.20;;;;;;;31.98;28.09;99257.53;5091069;28;20028;-46
2023/09/25 09:36:13;;;;;;;112.53;11.65;;;;;;;32.26;27.61;99252.44;5091006;28;20051;-46
2023/09/25 09:38:39;;;;;;;9.38;2.20;;;;;;;31.98;27.18;99263.75;5091011;28;20027;-47
2023/09/25 09:41:06;;;;;;;9.32;2.20;;;;;;;31.13;27.84;99259.16;5091643;28;20502;-46
2023/09/25 09:43:32;;;;;;;59.92;6.45;;;;;;;31.02;28.64;99255.19;5092519;28;20428;-46
2023/09/25 09:46:00;;;;;;;41.72;4.57;;;;;;;31.54;28.44;99255.06;5092212;28;20032;-46
2023/09/25 09:48:29;;;;;;;14.32;2.25;;;;;;;32.15;27.52;99257.44;5092338;28;20551;-46
2023/09/25 09:50:59;;;;;;;38.30;4.38;;;;;;;32.46;27.27;99253.53;5090807;28;20028;-46
2023/09/25 09:53:28;;;;;;;21.00;2.63;;;;;;;32.97;26.49;99256.91;5092451;28;20394;-46
2023/09/25 09:55:56;;;;;;;11.88;1.85;;;;;;;33.59;25.39;99246.16;5092298;28;20020;-46
2023/09/25 09:58:26;;;;;;;14.98;2.60;;;;;;;33.77;24.91;99247.53;5090689;28;20020;-46
2023/09/25 10:00:55;;;;;;;4.93;1.55;;;;;;;33.89;24.13;99244.00;5092053;28;20032;-46
2023/09/25 10:03:23;;;;;;;7.38;1.75;;;;;;;33.79;24.40;99244.47;5092035;28;20024;-46
2023/09/25 10:05:50;;;;;;;17.48;2.83;;;;;;;34.23;24.19;99241.94;5092261;28;20028;-46
2023/09/25 10:08:16;;;;;;;36.97;3.75;;;;;;;34.78;23.92;99247.75;5091575;28;20048;-46
2023/09/25 10:10:48;;;;;;;28.90;3.58;;;;;;;35.01;23.58;99243.31;5092178;28;20453;-46
2023/09/25 10:13:15;;;;;;;30.58;3.45;;;;;;;35.14;23.27;99246.75;5091998;28;20401;-46
2023/09/25 10:15:52;;;;;;;8.70;2.03;;;;;;;35.14;23.30;99237.78;5091887;28;20071;-46
2023/09/25 10:18:19;;;;;;;10.48;2.47;;;;;;;35.34;22.42;99230.50;5091809;28;20028;-46
2023/09/25 10:20:45;;;;;;;7.68;2.17;;;;;;;35.40;22.41;99237.28;5091767;28;20111;-46
2023/09/25 10:23:19;;;;;;;11.23;3.00;;;;;;;35.19;22.69;99238.34;5091765;28;20052;-46
2023/09/25 10:25:53;;;;;;;51.33;4.15;;;;;;;34.96;23.37;99232.63;5091773;28;20035;-46
2023/09/25 10:28:27;;;;;;;39.15;4.80;;;;;;;35.16;23.20;99230.84;5091698;28;20073;-46
2023/09/25 10:31:01;;;;;;;18.95;3.38;;;;;;;35.53;22.66;99227.03;5091757;28;20040;-46
2023/09/25 10:33:29;;;;;;;17.45;3.42;;;;;;;35.66;22.45;99231.28;5091795;28;20032;-47
2023/09/25 10:36:01;;;;;;;19.17;2.50;;;;;;;35.67;22.71;99224.66;5091673;28;20059;-46
2023/09/25 10:38:31;;;;;;;9.45;2.17;;;;;;;35.43;22.69;99230.31;5091639;28;20039;-47
2023/09/25 10:41:06;;;;;;;10.02;2.03;;;;;;;35.47;22.61;99229.22;5091592;28;20485;-47
2023/09/25 10:43:34;;;;;;;26.05;3.05;;;;;;;35.44;23.15;99219.03;5091743;28;20462;-46
2023/09/25 10:46:01;;;;;;;4.35;1.58;;;;;;;35.50;22.32;99217.63;5091560;28;20016;-46
2023/09/25 10:48:27;;;;;;;16.23;2.53;;;;;;;35.79;22.36;99210.09;5090497;28;20107;-47
2023/09/25 10:50:54;;;;;;;8.10;1.60;;;;;;;35.86;21.87;99212.19;5090204;28;20020;-47
2023/09/25 10:53:21;;;;;;;63.70;7.57;;;;;;;36.28;22.14;99215.06;5075897;28;20031;-46
2023/09/25 10:55:48;;;;;;;53.90;6.93;;;;;;;36.18;21.75;99216.44;5095367;28;20024;-46
2023/09/25 10:58:14;;;;;;;6.97;1.98;;;;;;;35.66;22.03;99225.00;5095368;28;20036;-46
2023/09/25 11:00:41;;;;;;;7.63;1.67;;;;;;;35.58;21.80;99224.03;5095351;28;20024;-46
2023/09/25 11:03:08;;;;;;;4.53;1.55;;;;;;;35.90;21.78;99216.59;5095300;28;20036;-47
2023/09/25 11:05:36;;;;;;;14.68;3.08;;;;;;;35.90;21.48;99216.59;5095157;28;20016;-47
2023/09/25 11:08:06;;;;;;;5.00;1.50;;;;;;;35.34;22.15;99220.34;5094811;28;20051;-47
2023/09/25 11:10:36;;;;;;;8.32;2.55;;;;;;;34.90;22.87;99214.16;5095164;28;20497;-46
2023/09/25 11:13:02;;;;;;;7.97;1.60;;;;;;;34.76;22.80;99220.03;5093790;28;20016;-46
2023/09/25 11:15:28;;;;;;;8.63;1.83;;;;;;;34.66;22.91;99220.53;5094976;28;20481;-46
2023/09/25 11:17:57;;;;;;;5.20;1.42;;;;;;;34.56;22.56;99221.81;5093852;28;20020;-47
2023/09/25 11:20:29;;;;;;;12.70;2.25;;;;;;;34.46;23.16;99217.66;5095203;28;20036;-46
2023/09/25 11:23:14;;;;;;;3.33;1.50;;;;;;;34.69;22.28;99212.47;5094050;28;20386;-46
2023/09/25 11:25:44;;;;;;;12.52;2.55;;;;;;;34.42;23.14;99203.91;5094814;28;20036;-46
2023/09/25 11:28:21;;;;;;;26.02;4.28;;;;;;;34.38;23.47;99194.84;5094741;28;20024;-47